createdAt,value
2018-06-14T00:00:45.417Z,86.52
2018-06-14T00:03:14.360Z,86.70
2018-06-14T00:05:43.289Z,86.82
2018-06-14T00:08:12.126Z,86.44
2018-06-14T00:10:40.926Z,86.52
2018-06-14T00:13:09.720Z,86.91
2018-06-14T00:15:38.643Z,86.48
2018-06-14T00:18:07.457Z,86.29
2018-06-14T00:20:36.263Z,87.15
2018-06-14T00:23:05.064Z,86.75
2018-06-14T00:25:34.025Z,86.85
2018-06-14T00:28:02.825Z,86.33
2018-06-14T00:30:31.691Z,85.92
2018-06-14T00:33:00.496Z,85.47
2018-06-14T00:35:29.278Z,85.88
2018-06-14T00:37:58.292Z,85.58
2018-06-14T00:40:27.083Z,85.55
2018-06-14T00:42:55.907Z,84.88
2018-06-14T00:45:24.726Z,85.22
2018-06-14T00:47:53.491Z,85.14
2018-06-14T00:50:22.289Z,85.36
2018-06-14T00:52:51.078Z,85.05
2018-06-14T00:55:19.848Z,84.78
2018-06-14T00:57:48.699Z,85.18
2018-06-14T01:00:17.487Z,85.65
2018-06-14T01:02:46.294Z,85.70
2018-06-14T01:05:15.098Z,85.62
2018-06-14T01:07:44.027Z,85.62
2018-06-14T01:10:12.911Z,85.76
2018-06-14T01:12:41.716Z,85.62
2018-06-14T01:15:10.528Z,85.46
2018-06-14T01:17:39.331Z,85.92
2018-06-14T01:20:08.185Z,85.95
2018-06-14T01:22:37.108Z,85.83
2018-06-14T01:25:06.387Z,84.89
2018-06-14T01:27:35.536Z,85.23
2018-06-14T01:30:04.448Z,84.75
2018-06-14T01:32:33.224Z,85.60
2018-06-14T01:35:02.002Z,85.20
2018-06-14T01:37:41.734Z,85.47
2018-06-14T01:40:10.716Z,85.66
2018-06-14T01:42:39.528Z,85.63
2018-06-14T01:45:08.358Z,85.18
2018-06-14T01:47:37.174Z,85.20
2018-06-14T01:50:06.012Z,85.93
2018-06-14T01:52:34.796Z,84.29
2018-06-14T01:55:03.615Z,84.76
2018-06-14T01:57:32.429Z,84.30
2018-06-14T02:00:01.277Z,84.08
2018-06-14T02:02:30.151Z,84.16
2018-06-14T02:04:59.031Z,83.99
2018-06-14T02:07:27.814Z,83.13
2018-06-14T02:09:56.575Z,84.07
2018-06-14T02:12:25.356Z,85.21
2018-06-14T02:14:54.141Z,85.82
2018-06-14T02:17:22.932Z,86.39
2018-06-14T02:19:51.697Z,86.68
2018-06-14T02:22:20.646Z,86.63
2018-06-14T02:24:49.414Z,86.65
2018-06-14T02:27:18.224Z,86.46
2018-06-14T02:29:47.049Z,86.96
2018-06-14T02:32:15.842Z,86.02
2018-06-14T02:34:44.623Z,86.18
2018-06-14T02:37:13.421Z,86.64
2018-06-14T02:39:42.232Z,86.32
2018-06-14T02:42:11.015Z,86.38
2018-06-14T02:44:40.542Z,86.67
2018-06-14T02:47:09.318Z,86.54
2018-06-14T02:49:38.200Z,86.72
2018-06-14T02:52:07.010Z,86.49
2018-06-14T02:54:35.799Z,86.60
2018-06-14T02:57:04.602Z,86.38
2018-06-14T02:59:33.396Z,86.38
2018-06-14T03:02:02.179Z,86.79
2018-06-14T03:04:31.060Z,86.91
2018-06-14T03:06:59.817Z,86.98
2018-06-14T03:09:28.591Z,87.32
2018-06-14T03:11:57.388Z,86.74
2018-06-14T03:14:26.260Z,86.71
2018-06-14T03:16:55.205Z,86.73
2018-06-14T03:19:23.983Z,86.41
2018-06-14T03:21:52.846Z,87.15
2018-06-14T03:24:21.634Z,87.08
2018-06-14T03:26:50.404Z,87.18
2018-06-14T03:29:19.190Z,87.31
2018-06-14T03:31:48.078Z,87.63
2018-06-14T03:34:16.883Z,87.28
2018-06-14T03:36:45.757Z,87.24
2018-06-14T03:39:14.561Z,87.95
2018-06-14T03:41:43.343Z,87.69
2018-06-14T03:44:12.108Z,86.76
2018-06-14T03:46:40.965Z,86.49
2018-06-14T03:49:09.751Z,84.87
2018-06-14T03:51:38.529Z,82.82
2018-06-14T03:54:07.305Z,81.16
2018-06-14T03:56:36.117Z,80.48
2018-06-14T03:59:05.227Z,80.86
2018-06-14T04:01:34.012Z,80.74
2018-06-14T04:04:02.859Z,80.80
2018-06-14T04:06:31.651Z,80.96
2018-06-14T04:09:00.493Z,81.12
2018-06-14T04:11:29.240Z,81.27
2018-06-14T04:13:58.016Z,80.93
2018-06-14T04:16:26.800Z,77.98
2018-06-14T04:18:55.732Z,77.44
2018-06-14T04:21:24.505Z,77.17
2018-06-14T04:23:53.262Z,77.62
2018-06-14T04:26:22.037Z,77.79
2018-06-14T04:28:50.828Z,78.02
2018-06-14T04:31:19.615Z,78.08
2018-06-14T04:33:48.392Z,79.12
2018-06-14T04:36:17.353Z,80.40
2018-06-14T04:38:46.178Z,78.12
2018-06-14T04:41:15.165Z,77.20
2018-06-14T04:43:43.976Z,77.81
2018-06-14T04:46:12.933Z,77.80
2018-06-14T04:48:41.841Z,77.46
2018-06-14T04:51:10.803Z,77.26
2018-06-14T04:53:40.520Z,76.29
2018-06-14T04:56:11.572Z,76.19
2018-06-14T04:58:40.399Z,76.73
2018-06-14T05:01:09.523Z,75.54
2018-06-14T05:03:38.536Z,73.61
2018-06-14T05:06:07.340Z,72.89
2018-06-14T05:08:36.127Z,69.07
2018-06-14T05:11:04.998Z,65.62
2018-06-14T05:13:33.752Z,65.11
2018-06-14T05:16:02.947Z,64.12
2018-06-14T05:18:31.712Z,64.48
2018-06-14T05:21:00.498Z,63.18
2018-06-14T05:23:29.400Z,62.62
2018-06-14T05:25:58.277Z,63.60
2018-06-14T05:28:27.014Z,63.03
2018-06-14T05:30:55.778Z,63.89
2018-06-14T05:33:24.568Z,64.67
2018-06-14T05:35:53.353Z,62.27
2018-06-14T05:38:22.166Z,62.18
2018-06-14T05:40:50.936Z,59.80
2018-06-14T05:43:19.746Z,59.73
2018-06-14T05:45:48.555Z,56.09
2018-06-14T05:48:17.369Z,52.15
2018-06-14T05:50:46.111Z,52.91
2018-06-14T05:53:14.900Z,51.33
2018-06-14T05:55:44.092Z,51.99
2018-06-14T05:58:12.851Z,54.04
2018-06-14T06:00:42.356Z,55.81
2018-06-14T06:03:11.308Z,56.14
2018-06-14T06:05:40.208Z,57.11
2018-06-14T06:08:08.971Z,58.66
2018-06-14T06:10:37.854Z,58.50
2018-06-14T06:13:06.627Z,60.42
2018-06-14T06:15:35.413Z,61.48
2018-06-14T06:18:04.205Z,63.28
2018-06-14T06:20:32.962Z,63.57
2018-06-14T06:23:01.725Z,64.48
2018-06-14T06:25:30.469Z,65.36
2018-06-14T06:27:59.275Z,65.18
2018-06-14T06:30:28.048Z,66.77
2018-06-14T06:32:56.825Z,65.87
2018-06-14T06:35:25.604Z,66.80
2018-06-14T06:37:54.741Z,65.57
2018-06-14T06:40:23.557Z,65.13
2018-06-14T06:42:52.339Z,63.68
2018-06-14T06:45:21.131Z,63.39
2018-06-14T06:47:49.935Z,64.33
2018-06-14T06:50:18.729Z,65.20
2018-06-14T06:52:47.505Z,65.96
2018-06-14T06:55:16.345Z,67.67
2018-06-14T06:57:45.132Z,66.34
2018-06-14T07:00:14.027Z,66.35
2018-06-14T07:02:42.796Z,67.04
2018-06-14T07:05:11.638Z,67.86
2018-06-14T07:07:40.416Z,67.78
2018-06-14T07:10:09.216Z,69.33
2018-06-14T07:12:37.970Z,69.67
2018-06-14T07:15:06.765Z,68.25
2018-06-14T07:17:35.556Z,68.22
2018-06-14T07:20:04.383Z,67.94
2018-06-14T07:22:33.234Z,67.44
2018-06-14T07:25:02.027Z,67.65
2018-06-14T07:27:30.879Z,67.54
2018-06-14T07:29:59.636Z,68.81
2018-06-14T07:32:28.408Z,68.70
2018-06-14T07:34:57.186Z,66.00
2018-06-14T07:37:25.947Z,66.90
2018-06-14T07:39:54.763Z,65.83
2018-06-14T07:42:23.625Z,66.81
2018-06-14T07:44:52.421Z,67.12
2018-06-14T07:47:21.202Z,66.84
2018-06-14T07:49:49.973Z,65.72
2018-06-14T07:52:18.724Z,65.97
2018-06-14T07:54:47.531Z,65.67
2018-06-14T07:57:16.321Z,65.79
2018-06-14T07:59:45.119Z,66.01
2018-06-14T08:02:13.991Z,65.50
2018-06-14T08:04:42.842Z,64.39
2018-06-14T08:07:11.617Z,67.24
2018-06-14T08:09:40.394Z,67.28
2018-06-14T08:12:09.165Z,68.47
2018-06-14T08:14:37.957Z,67.84
2018-06-14T08:17:06.739Z,66.14
2018-06-14T08:19:35.515Z,66.59
2018-06-14T08:22:04.322Z,64.95
2018-06-14T08:24:33.324Z,65.30
2018-06-14T08:27:02.097Z,64.01
2018-06-14T08:29:30.843Z,64.25
2018-06-14T08:31:59.660Z,64.86
2018-06-14T08:34:28.438Z,65.48
2018-06-14T08:36:57.276Z,64.31
2018-06-14T08:39:26.113Z,65.35
2018-06-14T08:41:54.919Z,64.69
2018-06-14T08:44:23.683Z,64.06
2018-06-14T08:46:52.530Z,64.34
2018-06-14T08:49:21.305Z,66.15
2018-06-14T08:51:50.052Z,65.56
2018-06-14T08:54:18.819Z,66.61
2018-06-14T08:56:47.615Z,64.73
2018-06-14T08:59:16.501Z,65.26
2018-06-14T09:01:45.263Z,64.30
2018-06-14T09:04:14.031Z,64.76
2018-06-14T09:06:43.011Z,63.87
2018-06-14T09:09:12.232Z,63.58
2018-06-14T09:11:41.582Z,62.41
2018-06-14T09:14:10.821Z,62.82
2018-06-14T09:16:40.133Z,62.63
2018-06-14T09:19:08.899Z,61.72
2018-06-14T09:21:37.769Z,60.46
2018-06-14T09:24:06.583Z,60.85
2018-06-14T09:26:35.387Z,60.84
2018-06-14T09:29:04.169Z,61.92
2018-06-14T09:31:33.009Z,59.18
2018-06-14T09:34:01.770Z,58.32
2018-06-14T09:36:30.925Z,61.55
2018-06-14T09:38:59.777Z,60.80
2018-06-14T09:41:28.604Z,61.53
2018-06-14T09:43:57.477Z,61.88
2018-06-14T09:46:26.246Z,59.89
2018-06-14T09:49:00.079Z,61.14
2018-06-14T09:51:28.830Z,58.94
2018-06-14T09:53:57.683Z,60.11
2018-06-14T09:56:26.460Z,62.26
2018-06-14T09:58:55.227Z,61.78
2018-06-14T10:01:24.143Z,61.84
2018-06-14T10:03:52.928Z,62.10
2018-06-14T10:06:22.094Z,63.25
2018-06-14T10:08:50.903Z,61.69
2018-06-14T10:11:19.707Z,62.99
2018-06-14T10:13:48.526Z,61.85
2018-06-14T10:16:17.448Z,59.86
2018-06-14T10:18:46.248Z,58.50
2018-06-14T10:21:15.009Z,58.80
2018-06-14T10:23:43.772Z,54.13
2018-06-14T10:26:12.583Z,53.00
2018-06-14T10:28:41.349Z,54.13
2018-06-14T10:31:10.131Z,54.80
2018-06-14T10:33:39.021Z,52.88
2018-06-14T10:36:07.831Z,52.17
2018-06-14T10:38:36.639Z,52.64
2018-06-14T10:41:05.465Z,51.21
2018-06-14T10:43:34.252Z,52.07
2018-06-14T10:46:03.010Z,53.76
2018-06-14T10:48:31.805Z,52.03
2018-06-14T10:51:00.602Z,53.52
2018-06-14T10:53:29.364Z,50.64
2018-06-14T10:55:58.120Z,48.44
2018-06-14T10:58:26.929Z,48.62
2018-06-14T11:00:55.788Z,50.83
2018-06-14T11:03:24.559Z,50.55
2018-06-14T11:05:53.346Z,49.66
2018-06-14T11:08:22.149Z,51.03
2018-06-14T11:10:50.937Z,47.15
2018-06-14T11:13:19.792Z,48.43
2018-06-14T11:15:48.623Z,46.56
2018-06-14T11:18:17.436Z,48.90
2018-06-14T11:20:46.227Z,46.95
2018-06-14T11:23:15.097Z,47.28
2018-06-14T11:25:43.901Z,46.73
2018-06-14T11:28:12.761Z,48.22
2018-06-14T11:30:41.502Z,46.41
2018-06-14T11:33:10.287Z,45.69
2018-06-14T11:35:39.084Z,47.68
2018-06-14T11:38:07.957Z,48.95
2018-06-14T11:40:36.735Z,49.70
2018-06-14T11:43:05.499Z,49.72
2018-06-14T11:45:34.335Z,48.98
2018-06-14T11:48:03.117Z,47.49
2018-06-14T11:50:31.908Z,48.84
2018-06-14T11:53:00.722Z,48.14
2018-06-14T11:55:29.513Z,49.35
2018-06-14T11:57:58.307Z,46.76
2018-06-14T12:00:27.195Z,48.12
2018-06-14T12:02:55.995Z,48.03
2018-06-14T12:05:24.792Z,47.69
2018-06-14T12:07:53.629Z,49.34
2018-06-14T12:10:22.423Z,48.66
2018-06-14T12:12:51.294Z,49.28
2018-06-14T12:15:20.196Z,48.50
2018-06-14T12:17:49.009Z,48.94
2018-06-14T12:20:17.783Z,47.64
2018-06-14T12:22:46.553Z,50.04
2018-06-14T12:25:15.350Z,49.02
2018-06-14T12:27:44.114Z,49.86
2018-06-14T12:30:12.935Z,50.54
2018-06-14T12:32:41.752Z,49.75
2018-06-14T12:35:10.517Z,48.08
2018-06-14T12:37:39.394Z,49.93
2018-06-14T12:40:08.126Z,49.51
2018-06-14T12:42:36.880Z,51.36
2018-06-14T12:45:05.677Z,50.69
2018-06-14T12:47:34.452Z,51.81
2018-06-14T12:50:03.225Z,54.82
2018-06-14T12:52:32.053Z,59.84
2018-06-14T12:55:00.981Z,62.54
2018-06-14T12:57:29.761Z,65.57
2018-06-14T12:59:58.651Z,65.15
2018-06-14T13:02:27.445Z,64.96
2018-06-14T13:04:56.353Z,66.45
2018-06-14T13:07:25.092Z,67.14
2018-06-14T13:09:53.855Z,68.16
2018-06-14T13:12:22.655Z,67.77
2018-06-14T13:14:51.445Z,68.37
2018-06-14T13:17:20.361Z,68.67
2018-06-14T13:19:49.176Z,69.53
2018-06-14T13:22:17.948Z,68.31
2018-06-14T13:24:46.776Z,68.44
2018-06-14T13:27:15.535Z,69.48
2018-06-14T13:29:44.380Z,71.65
2018-06-14T13:32:13.193Z,72.59
2018-06-14T13:34:41.988Z,72.58
2018-06-14T13:37:10.859Z,73.18
2018-06-14T13:39:39.743Z,72.94
2018-06-14T13:42:08.514Z,72.33
2018-06-14T13:44:37.410Z,72.37
2018-06-14T13:47:06.191Z,72.16
2018-06-14T13:49:34.969Z,71.94
2018-06-14T13:52:03.829Z,71.20
2018-06-14T13:54:32.609Z,71.42
2018-06-14T13:57:01.476Z,71.63
2018-06-14T13:59:30.275Z,70.77
2018-06-14T14:01:59.078Z,71.06
2018-06-14T14:04:27.868Z,71.91
2018-06-14T14:07:01.816Z,73.11
2018-06-14T14:09:30.590Z,71.73
2018-06-14T14:11:59.468Z,72.05
2018-06-14T14:14:28.432Z,72.62
2018-06-14T14:16:57.231Z,72.63
2018-06-14T14:19:26.002Z,73.13
2018-06-14T14:21:54.864Z,73.87
2018-06-14T14:24:23.718Z,73.14
2018-06-14T14:26:52.538Z,72.18
2018-06-14T14:29:21.336Z,72.29
2018-06-14T14:31:50.133Z,72.07
2018-06-14T14:34:18.965Z,70.57
2018-06-14T14:36:47.838Z,71.39
2018-06-14T14:39:16.586Z,71.83
2018-06-14T14:41:45.381Z,70.30
2018-06-14T14:44:14.343Z,69.39
2018-06-14T14:46:43.121Z,69.57
2018-06-14T14:49:11.893Z,69.25
2018-06-14T14:51:40.655Z,69.16
2018-06-14T14:54:09.490Z,69.14
2018-06-14T14:56:38.252Z,70.24
2018-06-14T14:59:07.006Z,67.83
2018-06-14T15:01:35.869Z,68.48
2018-06-14T15:04:04.661Z,67.04
2018-06-14T15:06:33.588Z,71.49
2018-06-14T15:09:02.415Z,72.02
2018-06-14T15:11:31.217Z,68.87
2018-06-14T15:13:59.989Z,68.70
2018-06-14T15:16:28.753Z,69.84
2018-06-14T15:18:57.553Z,69.03
2018-06-14T15:21:26.363Z,69.71
2018-06-14T15:23:55.087Z,67.98
2018-06-14T15:26:24.043Z,70.02
2018-06-14T15:28:52.848Z,69.96
2018-06-14T15:31:21.604Z,71.10
2018-06-14T15:33:50.396Z,71.88
2018-06-14T15:36:19.184Z,69.92
2018-06-14T15:38:47.963Z,70.19
2018-06-14T15:41:16.769Z,71.57
2018-06-14T15:43:45.542Z,73.50
2018-06-14T15:46:14.336Z,71.25
2018-06-14T15:48:43.084Z,71.62
2018-06-14T15:51:11.983Z,71.01
2018-06-14T15:53:40.761Z,67.81
2018-06-14T15:56:25.632Z,68.47
2018-06-14T15:58:54.461Z,67.52
2018-06-14T16:01:23.239Z,70.20
2018-06-14T16:03:52.211Z,69.13
2018-06-14T16:06:21.011Z,70.43
2018-06-14T16:08:49.795Z,70.33
2018-06-14T16:11:18.683Z,69.34
2018-06-14T16:13:47.465Z,68.86
2018-06-14T16:16:16.281Z,68.42
2018-06-14T16:18:45.178Z,67.62
2018-06-14T16:21:14.091Z,68.11
2018-06-14T16:23:42.844Z,68.25
2018-06-14T16:26:11.619Z,67.25
2018-06-14T16:28:40.506Z,67.76
2018-06-14T16:31:09.369Z,66.66
2018-06-14T16:33:38.180Z,67.94
2018-06-14T16:36:07.027Z,65.93
2018-06-14T16:38:35.934Z,66.86
2018-06-14T16:41:04.864Z,66.60
2018-06-14T16:43:33.726Z,67.76
2018-06-14T16:46:02.741Z,69.75
2018-06-14T16:48:31.408Z,70.25
2018-06-14T16:51:00.248Z,71.25
2018-06-14T16:53:29.150Z,71.52
2018-06-14T16:55:58.161Z,72.05
2018-06-14T16:58:27.141Z,72.14
2018-06-14T17:00:56.029Z,73.50
2018-06-14T17:03:24.833Z,72.99
2018-06-14T17:05:53.677Z,72.49
2018-06-14T17:08:22.497Z,72.68
2018-06-14T17:10:51.347Z,72.83
2018-06-14T17:13:20.170Z,71.34
2018-06-14T17:15:49.091Z,71.19
2018-06-14T17:18:18.010Z,70.80
2018-06-14T17:20:46.816Z,71.25
2018-06-14T17:23:15.736Z,72.56
2018-06-14T17:25:44.545Z,72.99
2018-06-14T17:28:13.389Z,72.99
2018-06-14T17:30:42.232Z,74.04
2018-06-14T17:33:11.101Z,73.00
2018-06-14T17:35:39.966Z,73.34
2018-06-14T17:38:08.788Z,74.20
2018-06-14T17:40:37.758Z,74.30
2018-06-14T17:43:06.622Z,72.95
2018-06-14T17:45:35.463Z,72.77
2018-06-14T17:48:04.302Z,72.79
2018-06-14T17:50:33.086Z,72.35
2018-06-14T17:53:01.883Z,72.71
2018-06-14T17:55:30.757Z,73.07
2018-06-14T17:57:59.588Z,72.50
2018-06-14T18:00:28.431Z,73.48
2018-06-14T18:02:57.400Z,73.59
2018-06-14T18:05:26.333Z,73.81
2018-06-14T18:07:55.184Z,74.84
2018-06-14T18:10:23.974Z,75.50
2018-06-14T18:12:52.780Z,76.01
2018-06-14T18:15:21.605Z,76.04
2018-06-14T18:17:50.511Z,76.08
2018-06-14T18:20:20.020Z,76.37
2018-06-14T18:22:48.913Z,77.06
2018-06-14T18:25:17.762Z,77.58
2018-06-14T18:27:46.546Z,77.90
2018-06-14T18:30:15.422Z,77.62
2018-06-14T18:32:44.308Z,78.36
2018-06-14T18:35:13.156Z,78.40
2018-06-14T18:37:42.105Z,78.54
2018-06-14T18:40:11.127Z,79.21
2018-06-14T18:42:40.027Z,78.96
2018-06-14T18:45:08.877Z,79.44
2018-06-14T18:47:37.895Z,79.16
2018-06-14T18:50:06.762Z,79.93
2018-06-14T18:52:35.583Z,80.18
2018-06-14T18:55:04.474Z,79.96
2018-06-14T18:57:33.340Z,79.60
2018-06-14T19:00:02.210Z,79.01
2018-06-14T19:02:31.073Z,79.14
2018-06-14T19:04:59.944Z,79.27
2018-06-14T19:07:29.044Z,79.32
2018-06-14T19:09:57.928Z,79.97
2018-06-14T19:12:26.738Z,79.42
2018-06-14T19:14:55.659Z,79.95
2018-06-14T19:17:25.438Z,80.16
2018-06-14T19:19:54.504Z,80.16
2018-06-14T19:22:23.290Z,80.43
2018-06-14T19:24:52.214Z,80.76
2018-06-14T19:27:21.027Z,81.15
2018-06-14T19:29:49.864Z,81.12
2018-06-14T19:32:18.851Z,81.89
2018-06-14T19:34:47.701Z,82.28
2018-06-14T19:37:16.550Z,81.72
2018-06-14T19:39:45.344Z,82.35
2018-06-14T19:42:14.226Z,82.72
2018-06-14T19:44:43.143Z,82.81
2018-06-14T19:47:12.006Z,82.96
2018-06-14T19:49:41.191Z,82.65
2018-06-14T19:52:10.013Z,82.66
2018-06-14T19:54:38.917Z,82.92
2018-06-14T19:57:07.762Z,82.76
2018-06-14T19:59:36.634Z,83.10
2018-06-14T20:02:05.484Z,83.08
2018-06-14T20:04:34.321Z,82.86
2018-06-14T20:07:03.210Z,83.19
2018-06-14T20:09:32.010Z,83.65
2018-06-14T20:12:00.860Z,83.67
2018-06-14T20:14:29.730Z,83.46
2018-06-14T20:16:58.708Z,83.85
2018-06-14T20:19:27.516Z,83.65
2018-06-14T20:21:56.339Z,83.94
2018-06-14T20:24:25.119Z,84.05
2018-06-14T20:26:53.936Z,84.51
2018-06-14T20:29:22.808Z,84.65
2018-06-14T20:31:51.570Z,84.28
2018-06-14T20:34:20.343Z,83.81
2018-06-14T20:36:49.208Z,84.11
2018-06-14T20:39:18.012Z,83.90
2018-06-14T20:41:46.923Z,83.65
2018-06-14T20:44:15.656Z,83.24
2018-06-14T20:46:44.453Z,83.67
2018-06-14T20:49:13.257Z,83.14
2018-06-14T20:51:42.129Z,83.20
2018-06-14T20:54:10.909Z,82.96
2018-06-14T20:56:39.683Z,82.48
2018-06-14T20:59:08.464Z,82.17
2018-06-14T21:01:37.317Z,81.39
2018-06-14T21:04:06.170Z,80.27
2018-06-14T21:06:34.954Z,80.13
2018-06-14T21:09:04.722Z,79.47
2018-06-14T21:11:33.513Z,79.55
2018-06-14T21:14:02.284Z,78.80
2018-06-14T21:16:31.099Z,78.62
2018-06-14T21:19:00.013Z,78.61
2018-06-14T21:21:28.795Z,79.26
2018-06-14T21:23:58.767Z,80.12
2018-06-14T21:26:27.739Z,80.60
2018-06-14T21:28:56.547Z,80.82
2018-06-14T21:31:25.339Z,81.12
2018-06-14T21:33:54.122Z,81.79
2018-06-14T21:36:23.604Z,81.84
2018-06-14T21:38:52.383Z,81.77
2018-06-14T21:41:21.189Z,81.44
2018-06-14T21:43:49.945Z,81.71
2018-06-14T21:46:18.830Z,81.70
2018-06-14T21:48:47.695Z,82.11
2018-06-14T21:51:16.544Z,82.12
2018-06-14T21:53:45.304Z,82.11
2018-06-14T21:56:14.044Z,82.43
2018-06-14T21:58:42.838Z,82.77
2018-06-14T22:01:12.424Z,82.73
2018-06-14T22:03:46.337Z,82.91
2018-06-14T22:06:15.158Z,83.28
2018-06-14T22:08:43.996Z,83.21
2018-06-14T22:11:12.848Z,83.26
2018-06-14T22:13:41.701Z,83.48
2018-06-14T22:16:10.454Z,83.87
2018-06-14T22:18:39.242Z,84.13
2018-06-14T22:21:08.015Z,83.90
2018-06-14T22:23:36.784Z,84.44
2018-06-14T22:26:05.600Z,84.31
2018-06-14T22:28:34.398Z,84.26
2018-06-14T22:31:03.283Z,84.48
2018-06-14T22:33:43.061Z,84.84
2018-06-14T22:36:11.867Z,84.76
2018-06-14T22:38:40.639Z,85.02
2018-06-14T22:41:09.411Z,85.51
2018-06-14T22:43:38.195Z,85.40
2018-06-14T22:46:07.115Z,85.42
2018-06-14T22:48:35.901Z,85.39
2018-06-14T22:51:19.977Z,85.68
2018-06-14T22:53:48.818Z,86.39
2018-06-14T22:56:17.724Z,86.68
2018-06-14T22:58:46.604Z,86.81
2018-06-14T23:01:48.664Z,86.79
2018-06-14T23:04:26.590Z,86.87
2018-06-14T23:06:55.572Z,86.98
2018-06-14T23:10:37.152Z,86.89
2018-06-14T23:13:06.757Z,86.94
2018-06-14T23:15:35.581Z,86.58
2018-06-14T23:18:04.696Z,86.63
2018-06-14T23:20:34.290Z,86.77
2018-06-14T23:23:03.676Z,86.29
2018-06-14T23:25:32.951Z,86.85
2018-06-14T23:28:01.745Z,86.68
2018-06-14T23:30:30.535Z,86.70
2018-06-14T23:32:59.396Z,86.34
2018-06-14T23:35:28.297Z,86.46
2018-06-14T23:37:57.100Z,86.51
2018-06-14T23:40:25.879Z,86.45
2018-06-14T23:42:54.653Z,86.14
2018-06-14T23:45:23.413Z,85.80
2018-06-14T23:47:52.173Z,86.21
2018-06-14T23:50:20.997Z,85.94
2018-06-14T23:52:49.745Z,85.54
2018-06-14T23:55:18.530Z,85.50
2018-06-14T23:57:47.390Z,85.12
